sensor_id;sensor_type;location;lat;lon;timestamp;pressure;altitude;pressure_sealevel;temperature;humidity
60725;BME280;59881;36.722;-4.462;2022-12-15T00:02:17;99736.75;;;13.42;100.00
60725;BME280;59881;36.722;-4.462;2022-12-15T00:05:01;99720.19;;;13.40;100.00
60725;BME280;59881;36.722;-4.462;2022-12-15T00:07:45;99712.69;;;13.36;100.00
60725;BME280;59881;36.722;-4.462;2022-12-15T00:10:29;99717.16;;;13.35;100.00
60725;BME280;59881;36.722;-4.462;2022-12-15T00:13:13;99514.41;;;12.12;100.00
60725;BME280;59881;36.722;-4.462;2022-12-15T00:15:57;99719.94;;;13.34;100.00
60725;BME280;59881;36.722;-4.462;2022-12-15T00:18:41;99722.41;;;13.25;100.00
60725;BME280;59881;36.722;-4.462;2022-12-15T00:21:24;99672.25;;;12.96;100.00
60725;BME280;59881;36.722;-4.462;2022-12-15T00:24:08;99298.13;;;10.56;100.00
60725;BME280;59881;36.722;-4.462;2022-12-15T00:26:52;99792.88;;;13.07;100.00
60725;BME280;59881;36.722;-4.462;2022-12-15T00:29:36;99682.28;;;12.83;100.00
60725;BME280;59881;36.722;-4.462;2022-12-15T00:32:21;99614.47;;;12.45;100.00
60725;BME280;59881;36.722;-4.462;2022-12-15T00:35:05;99685.75;;;12.93;100.00
60725;BME280;59881;36.722;-4.462;2022-12-15T00:37:49;99718.81;;;13.17;100.00
60725;BME280;59881;36.722;-4.462;2022-12-15T00:40:33;99628.19;;;12.68;100.00
60725;BME280;59881;36.722;-4.462;2022-12-15T00:42:59;99433.19;;;11.48;100.00
60725;BME280;59881;36.722;-4.462;2022-12-15T00:45:24;99703.38;;;13.12;100.00
60725;BME280;59881;36.722;-4.462;2022-12-15T00:48:10;99649.59;;;12.74;100.00
60725;BME280;59881;36.722;-4.462;2022-12-15T00:50:35;98988.78;;;8.64;100.00
60725;BME280;59881;36.722;-4.462;2022-12-15T00:53:17;99648.91;;;12.82;100.00
60725;BME280;59881;36.722;-4.462;2022-12-15T00:56:01;99691.84;;;13.03;100.00
60725;BME280;59881;36.722;-4.462;2022-12-15T00:58:45;99708.31;;;12.97;100.00
60725;BME280;59881;36.722;-4.462;2022-12-15T01:01:29;99713.31;;;12.91;100.00
60725;BME280;59881;36.722;-4.462;2022-12-15T01:04:13;99930.22;;;12.89;100.00
60725;BME280;59881;36.722;-4.462;2022-12-15T01:06:57;99717.06;;;12.98;100.00
60725;BME280;59881;36.722;-4.462;2022-12-15T01:09:40;98991.69;;;8.40;100.00
60725;BME280;59881;36.722;-4.462;2022-12-15T01:12:24;99733.47;;;13.01;100.00
60725;BME280;59881;36.722;-4.462;2022-12-15T01:15:08;99370.38;;;10.73;100.00
60725;BME280;59881;36.722;-4.462;2022-12-15T01:17:52;99554.47;;;11.98;100.00
60725;BME280;59881;36.722;-4.462;2022-12-15T01:20:36;99716.22;;;13.07;100.00
60725;BME280;59881;36.722;-4.462;2022-12-15T01:23:02;99719.97;;;13.04;100.00
60725;BME280;59881;36.722;-4.462;2022-12-15T01:25:27;99412.19;;;11.27;100.00
60725;BME280;59881;36.722;-4.462;2022-12-15T01:27:54;99632.00;;;12.55;100.00
60725;BME280;59881;36.722;-4.462;2022-12-15T01:30:22;99706.66;;;12.87;100.00
60725;BME280;59881;36.722;-4.462;2022-12-15T01:32:48;99541.63;;;11.84;100.00
60725;BME280;59881;36.722;-4.462;2022-12-15T01:35:14;99686.34;;;12.68;100.00
60725;BME280;59881;36.722;-4.462;2022-12-15T01:37:40;99625.75;;;12.47;100.00
60725;BME280;59881;36.722;-4.462;2022-12-15T01:40:06;99667.41;;;12.82;100.00
60725;BME280;59881;36.722;-4.462;2022-12-15T01:42:50;99607.09;;;12.58;100.00
60725;BME280;59881;36.722;-4.462;2022-12-15T01:47:51;99682.50;;;13.29;100.00
60725;BME280;59881;36.722;-4.462;2022-12-15T01:50:18;99236.19;;;10.62;100.00
60725;BME280;59881;36.722;-4.462;2022-12-15T01:52:46;99241.47;;;10.72;100.00
60725;BME280;59881;36.722;-4.462;2022-12-15T01:55:12;99653.13;;;13.32;100.00
60725;BME280;59881;36.722;-4.462;2022-12-15T01:57:40;99676.28;;;13.57;100.00
60725;BME280;59881;36.722;-4.462;2022-12-15T02:00:07;99579.16;;;13.02;100.00
60725;BME280;59881;36.722;-4.462;2022-12-15T02:02:34;99674.16;;;13.61;100.00
60725;BME280;59881;36.722;-4.462;2022-12-15T02:05:02;99642.22;;;13.44;100.00
60725;BME280;59881;36.722;-4.462;2022-12-15T02:07:28;99174.63;;;10.53;100.00
60725;BME280;59881;36.722;-4.462;2022-12-15T02:09:55;99667.47;;;13.57;100.00
60725;BME280;59881;36.722;-4.462;2022-12-15T02:15:20;99256.28;;;11.02;100.00
60725;BME280;59881;36.722;-4.462;2022-12-15T02:17:58;99663.50;;;13.53;100.00
60725;BME280;59881;36.722;-4.462;2022-12-15T02:32:01;99637.59;;;13.47;100.00
60725;BME280;59881;36.722;-4.462;2022-12-15T02:34:40;99629.50;;;13.48;100.00
60725;BME280;59881;36.722;-4.462;2022-12-15T02:37:26;99617.13;;;13.49;99.92
60725;BME280;59881;36.722;-4.462;2022-12-15T02:39:53;99620.03;;;13.55;99.11
60725;BME280;59881;36.722;-4.462;2022-12-15T02:42:19;99614.41;;;13.58;98.58
60725;BME280;59881;36.722;-4.462;2022-12-15T02:44:56;99606.63;;;13.57;98.08
60725;BME280;59881;36.722;-4.462;2022-12-15T02:47:31;99616.50;;;13.55;98.09
60725;BME280;59881;36.722;-4.462;2022-12-15T02:53:53;99620.47;;;13.51;98.64
60725;BME280;59881;36.722;-4.462;2022-12-15T02:56:31;99621.81;;;13.55;99.07
60725;BME280;59881;36.722;-4.462;2022-12-15T02:59:28;99573.34;;;13.27;99.00
60725;BME280;59881;36.722;-4.462;2022-12-15T03:02:02;99516.72;;;12.92;99.00
60725;BME280;59881;36.722;-4.462;2022-12-15T03:04:31;99631.66;;;13.62;99.25
60725;BME280;59881;36.722;-4.462;2022-12-15T03:07:01;99086.66;;;10.37;99.16
60725;BME280;59881;36.722;-4.462;2022-12-15T03:09:31;99606.28;;;13.70;99.86
60725;BME280;59881;36.722;-4.462;2022-12-15T03:11:57;99605.44;;;13.69;99.78
60725;BME280;59881;36.722;-4.462;2022-12-15T03:14:23;99479.72;;;12.92;99.72
60725;BME280;59881;36.722;-4.462;2022-12-15T03:16:53;99579.91;;;13.50;100.00
60725;BME280;59881;36.722;-4.462;2022-12-15T03:19:19;99613.53;;;13.68;100.00
60725;BME280;59881;36.722;-4.462;2022-12-15T03:21:44;99610.06;;;13.67;100.00
60725;BME280;59881;36.722;-4.462;2022-12-15T03:24:10;99615.34;;;13.67;100.00
60725;BME280;59881;36.722;-4.462;2022-12-15T03:26:36;99617.00;;;13.68;100.00
60725;BME280;59881;36.722;-4.462;2022-12-15T03:29:01;99613.25;;;13.71;100.00
60725;BME280;59881;36.722;-4.462;2022-12-15T03:31:27;99606.00;;;13.73;100.00
60725;BME280;59881;36.722;-4.462;2022-12-15T03:33:53;99580.84;;;13.59;100.00
60725;BME280;59881;36.722;-4.462;2022-12-15T03:36:20;98985.28;;;9.93;100.00
60725;BME280;59881;36.722;-4.462;2022-12-15T03:38:47;99606.38;;;13.78;100.00
60725;BME280;59881;36.722;-4.462;2022-12-15T03:41:13;99591.47;;;13.77;100.00
60725;BME280;59881;36.722;-4.462;2022-12-15T03:43:38;99594.88;;;13.87;100.00
60725;BME280;59881;36.722;-4.462;2022-12-15T03:46:04;99565.59;;;13.71;100.00
60725;BME280;59881;36.722;-4.462;2022-12-15T03:48:29;99584.97;;;13.89;100.00
60725;BME280;59881;36.722;-4.462;2022-12-15T03:50:55;99328.91;;;11.53;100.00
60725;BME280;59881;36.722;-4.462;2022-12-15T03:53:20;99583.50;;;13.77;100.00
60725;BME280;59881;36.722;-4.462;2022-12-15T03:55:46;99617.28;;;13.93;100.00
60725;BME280;59881;36.722;-4.462;2022-12-15T03:58:11;99598.19;;;13.71;100.00
60725;BME280;59881;36.722;-4.462;2022-12-15T04:00:37;99235.09;;;11.51;100.00
60725;BME280;59881;36.722;-4.462;2022-12-15T04:03:03;99489.28;;;12.93;100.00
60725;BME280;59881;36.722;-4.462;2022-12-15T04:05:31;99580.34;;;13.73;100.00
60725;BME280;59881;36.722;-4.462;2022-12-15T04:07:58;99573.44;;;13.62;100.00
60725;BME280;59881;36.722;-4.462;2022-12-15T04:10:25;99629.00;;;13.90;100.00
60725;BME280;59881;36.722;-4.462;2022-12-15T04:15:24;99529.78;;;13.31;100.00
60725;BME280;59881;36.722;-4.462;2022-12-15T04:17:49;99216.53;;;11.43;100.00
60725;BME280;59881;36.722;-4.462;2022-12-15T04:20:15;99578.75;;;13.62;100.00
60725;BME280;59881;36.722;-4.462;2022-12-15T04:22:43;99454.31;;;12.81;100.00
60725;BME280;59881;36.722;-4.462;2022-12-15T04:25:12;99615.72;;;13.72;100.00
60725;BME280;59881;36.722;-4.462;2022-12-15T04:27:57;99615.91;;;13.71;100.00
60725;BME280;59881;36.722;-4.462;2022-12-15T04:30:45;99637.91;;;13.71;100.00
60725;BME280;59881;36.722;-4.462;2022-12-15T04:33:30;99652.78;;;13.72;100.00
60725;BME280;59881;36.722;-4.462;2022-12-15T04:36:15;99323.28;;;11.19;100.00
60725;BME280;59881;36.722;-4.462;2022-12-15T04:38:59;99280.38;;;11.36;100.00
60725;BME280;59881;36.722;-4.462;2022-12-15T04:41:43;98937.66;;;9.28;100.00
60725;BME280;59881;36.722;-4.462;2022-12-15T04:44:28;99678.78;;;13.86;100.00
60725;BME280;59881;36.722;-4.462;2022-12-15T04:47:13;99561.84;;;13.18;100.00
60725;BME280;59881;36.722;-4.462;2022-12-15T04:49:57;99354.91;;;11.58;100.00
60725;BME280;59881;36.722;-4.462;2022-12-15T04:52:41;99674.53;;;13.94;100.00
60725;BME280;59881;36.722;-4.462;2022-12-15T04:55:25;99669.25;;;13.94;100.00
60725;BME280;59881;36.722;-4.462;2022-12-15T04:58:09;99306.00;;;11.64;100.00
60725;BME280;59881;36.722;-4.462;2022-12-15T05:00:56;99646.91;;;13.78;100.00
60725;BME280;59881;36.722;-4.462;2022-12-15T05:03:40;99577.88;;;13.44;100.00
60725;BME280;59881;36.722;-4.462;2022-12-15T05:06:24;99659.66;;;13.93;100.00
60725;BME280;59881;36.722;-4.462;2022-12-15T05:09:08;99606.63;;;13.57;100.00
60725;BME280;59881;36.722;-4.462;2022-12-15T05:11:52;99642.75;;;13.76;100.00
60725;BME280;59881;36.722;-4.462;2022-12-15T05:14:35;99659.09;;;13.89;100.00
60725;BME280;59881;36.722;-4.462;2022-12-15T05:17:19;99303.31;;;11.16;100.00
60725;BME280;59881;36.722;-4.462;2022-12-15T05:20:04;99562.59;;;13.38;100.00
60725;BME280;59881;36.722;-4.462;2022-12-15T05:22:55;99126.38;;;10.82;100.00
60725;BME280;59881;36.722;-4.462;2022-12-15T05:25:40;99598.13;;;13.81;100.00
60725;BME280;59881;36.722;-4.462;2022-12-15T05:28:24;99614.31;;;13.78;100.00
60725;BME280;59881;36.722;-4.462;2022-12-15T05:31:08;99621.72;;;13.74;100.00
60725;BME280;59881;36.722;-4.462;2022-12-15T05:33:53;99599.13;;;13.52;100.00
60725;BME280;59881;36.722;-4.462;2022-12-15T05:36:19;99596.09;;;13.47;100.00
60725;BME280;59881;36.722;-4.462;2022-12-15T05:38:50;99657.75;;;13.10;100.00
60725;BME280;59881;36.722;-4.462;2022-12-15T05:41:17;99611.09;;;13.29;100.00
60725;BME280;59881;36.722;-4.462;2022-12-15T05:43:42;99639.31;;;13.65;100.00
60725;BME280;59881;36.722;-4.462;2022-12-15T05:46:08;99644.31;;;13.69;100.00
60725;BME280;59881;36.722;-4.462;2022-12-15T05:48:34;99615.69;;;13.54;100.00
60725;BME280;59881;36.722;-4.462;2022-12-15T05:51:07;99654.97;;;13.77;100.00
60725;BME280;59881;36.722;-4.462;2022-12-15T05:53:37;99656.53;;;13.79;100.00
60725;BME280;59881;36.722;-4.462;2022-12-15T05:56:04;99631.81;;;13.61;100.00
60725;BME280;59881;36.722;-4.462;2022-12-15T05:58:30;99641.00;;;13.66;100.00
60725;BME280;59881;36.722;-4.462;2022-12-15T06:01:09;99624.06;;;13.50;100.00
60725;BME280;59881;36.722;-4.462;2022-12-15T06:03:37;98881.16;;;8.74;100.00
60725;BME280;59881;36.722;-4.462;2022-12-15T06:06:03;99692.28;;;13.83;100.00
60725;BME280;59881;36.722;-4.462;2022-12-15T06:08:31;99691.47;;;13.83;100.00
60725;BME280;59881;36.722;-4.462;2022-12-15T06:10:57;99331.72;;;11.42;100.00
60725;BME280;59881;36.722;-4.462;2022-12-15T06:13:24;99717.25;;;13.43;100.00
60725;BME280;59881;36.722;-4.462;2022-12-15T06:15:59;99323.28;;;11.09;100.00
60725;BME280;59881;36.722;-4.462;2022-12-15T06:18:29;99698.03;;;13.79;100.00
60725;BME280;59881;36.722;-4.462;2022-12-15T06:21:22;99709.06;;;13.74;100.00
60725;BME280;59881;36.722;-4.462;2022-12-15T06:23:48;99560.66;;;12.55;100.00
60725;BME280;59881;36.722;-4.462;2022-12-15T06:26:17;99735.78;;;13.81;100.00
60725;BME280;59881;36.722;-4.462;2022-12-15T06:28:43;99861.44;;;13.86;100.00
60725;BME280;59881;36.722;-4.462;2022-12-15T06:31:10;99572.09;;;12.83;100.00
60725;BME280;59881;36.722;-4.462;2022-12-15T06:33:37;99441.91;;;11.48;100.00
60725;BME280;59881;36.722;-4.462;2022-12-15T06:36:04;99815.13;;;13.53;100.00
60725;BME280;59881;36.722;-4.462;2022-12-15T06:38:32;99748.13;;;13.90;100.00
60725;BME280;59881;36.722;-4.462;2022-12-15T06:40:59;99048.22;;;9.56;100.00
60725;BME280;59881;36.722;-4.462;2022-12-15T06:43:26;99749.00;;;13.91;100.00
60725;BME280;59881;36.722;-4.462;2022-12-15T06:45:51;99784.22;;;13.91;100.00
60725;BME280;59881;36.722;-4.462;2022-12-15T06:48:18;99550.47;;;12.60;100.00
60725;BME280;59881;36.722;-4.462;2022-12-15T06:50:44;99766.47;;;13.74;100.00
60725;BME280;59881;36.722;-4.462;2022-12-15T06:53:13;99777.81;;;13.94;100.00
60725;BME280;59881;36.722;-4.462;2022-12-15T06:55:40;99855.44;;;13.94;100.00
60725;BME280;59881;36.722;-4.462;2022-12-15T06:58:06;99112.72;;;10.30;100.00
60725;BME280;59881;36.722;-4.462;2022-12-15T07:00:33;99697.06;;;13.80;100.00
60725;BME280;59881;36.722;-4.462;2022-12-15T07:03:01;99179.28;;;10.01;100.00
60725;BME280;59881;36.722;-4.462;2022-12-15T07:05:27;99749.94;;;13.62;100.00
60725;BME280;59881;36.722;-4.462;2022-12-15T07:07:52;99085.78;;;10.07;100.00
60725;BME280;59881;36.722;-4.462;2022-12-15T07:10:18;99048.41;;;9.93;100.00
60725;BME280;59881;36.722;-4.462;2022-12-15T07:12:44;99499.13;;;12.35;100.00
60725;BME280;59881;36.722;-4.462;2022-12-15T07:15:09;99670.63;;;13.42;100.00
60725;BME280;59881;36.722;-4.462;2022-12-15T07:17:35;99414.56;;;11.69;100.00
60725;BME280;59881;36.722;-4.462;2022-12-15T07:20:03;99711.00;;;13.44;100.00
60725;BME280;59881;36.722;-4.462;2022-12-15T07:22:29;99760.44;;;13.44;100.00
60725;BME280;59881;36.722;-4.462;2022-12-15T07:24:55;99812.50;;;13.43;100.00
60725;BME280;59881;36.722;-4.462;2022-12-15T07:27:20;99307.28;;;10.22;100.00
60725;BME280;59881;36.722;-4.462;2022-12-15T07:29:46;99205.19;;;10.06;100.00
60725;BME280;59881;36.722;-4.462;2022-12-15T07:32:11;99588.72;;;12.56;100.00
60725;BME280;59881;36.722;-4.462;2022-12-15T07:34:37;99414.50;;;10.81;100.00
60725;BME280;59881;36.722;-4.462;2022-12-15T07:37:02;99653.78;;;12.77;100.00
60725;BME280;59881;36.722;-4.462;2022-12-15T07:39:28;99722.88;;;13.11;100.00
60725;BME280;59881;36.722;-4.462;2022-12-15T07:41:53;99841.06;;;13.11;100.00
60725;BME280;59881;36.722;-4.462;2022-12-15T07:44:19;99717.84;;;13.08;100.00
60725;BME280;59881;36.722;-4.462;2022-12-15T07:46:45;99713.44;;;13.09;100.00
60725;BME280;59881;36.722;-4.462;2022-12-15T07:49:14;99819.31;;;13.17;100.00
60725;BME280;59881;36.722;-4.462;2022-12-15T07:51:39;99683.78;;;13.05;100.00
60725;BME280;59881;36.722;-4.462;2022-12-15T07:54:11;99649.03;;;12.90;100.00
60725;BME280;59881;36.722;-4.462;2022-12-15T07:56:38;99232.84;;;10.41;100.00
60725;BME280;59881;36.722;-4.462;2022-12-15T07:59:04;99705.59;;;13.36;100.00
60725;BME280;59881;36.722;-4.462;2022-12-15T08:01:30;99760.28;;;13.45;100.00
60725;BME280;59881;36.722;-4.462;2022-12-15T08:03:55;99576.69;;;12.81;100.00
60725;BME280;59881;36.722;-4.462;2022-12-15T08:06:21;99252.97;;;10.90;100.00
60725;BME280;59881;36.722;-4.462;2022-12-15T08:08:46;99698.78;;;13.71;100.00
60725;BME280;59881;36.722;-4.462;2022-12-15T08:11:13;99622.94;;;13.15;100.00
60725;BME280;59881;36.722;-4.462;2022-12-15T08:13:41;99710.94;;;13.64;100.00
60725;BME280;59881;36.722;-4.462;2022-12-15T08:16:07;99257.81;;;10.75;100.00
60725;BME280;59881;36.722;-4.462;2022-12-15T08:18:33;99716.09;;;13.56;100.00
60725;BME280;59881;36.722;-4.462;2022-12-15T08:21:03;99534.97;;;12.38;100.00
60725;BME280;59881;36.722;-4.462;2022-12-15T08:23:30;99717.06;;;13.55;100.00
60725;BME280;59881;36.722;-4.462;2022-12-15T08:26:06;99715.53;;;13.62;100.00
60725;BME280;59881;36.722;-4.462;2022-12-15T08:28:33;99547.78;;;12.04;100.00
60725;BME280;59881;36.722;-4.462;2022-12-15T08:31:08;99311.75;;;11.20;100.00
60725;BME280;59881;36.722;-4.462;2022-12-15T08:33:35;99835.50;;;14.00;100.00
60725;BME280;59881;36.722;-4.462;2022-12-15T08:36:05;99775.34;;;14.10;100.00
60725;BME280;59881;36.722;-4.462;2022-12-15T08:38:32;99780.84;;;14.26;100.00
60725;BME280;59881;36.722;-4.462;2022-12-15T08:41:15;99731.25;;;14.19;100.00
60725;BME280;59881;36.722;-4.462;2022-12-15T08:43:43;99780.94;;;14.62;100.00
60725;BME280;59881;36.722;-4.462;2022-12-15T08:46:09;99619.16;;;13.55;100.00
60725;BME280;59881;36.722;-4.462;2022-12-15T08:48:34;99430.03;;;12.30;100.00
60725;BME280;59881;36.722;-4.462;2022-12-15T08:51:00;99427.13;;;12.24;100.00
60725;BME280;59881;36.722;-4.462;2022-12-15T08:53:26;99768.44;;;14.27;100.00
60725;BME280;59881;36.722;-4.462;2022-12-15T08:55:52;99843.38;;;14.75;100.00
60725;BME280;59881;36.722;-4.462;2022-12-15T08:58:18;99799.25;;;14.56;100.00
60725;BME280;59881;36.722;-4.462;2022-12-15T09:00:43;99720.09;;;13.97;100.00
60725;BME280;59881;36.722;-4.462;2022-12-15T09:03:09;99992.19;;;14.42;100.00
60725;BME280;59881;36.722;-4.462;2022-12-15T09:05:36;99127.91;;;10.17;100.00
60725;BME280;59881;36.722;-4.462;2022-12-15T09:08:03;99255.31;;;11.03;100.00
60725;BME280;59881;36.722;-4.462;2022-12-15T09:10:29;99751.03;;;13.97;100.00
60725;BME280;59881;36.722;-4.462;2022-12-15T09:12:54;99814.50;;;14.16;100.00
60725;BME280;59881;36.722;-4.462;2022-12-15T09:15:20;99371.13;;;11.24;100.00
60725;BME280;59881;36.722;-4.462;2022-12-15T09:17:45;99831.72;;;14.02;100.00
60725;BME280;59881;36.722;-4.462;2022-12-15T09:20:12;99842.44;;;14.01;100.00
60725;BME280;59881;36.722;-4.462;2022-12-15T09:22:41;99855.53;;;14.02;100.00
60725;BME280;59881;36.722;-4.462;2022-12-15T09:25:07;99627.66;;;11.96;100.00
60725;BME280;59881;36.722;-4.462;2022-12-15T09:27:33;99852.38;;;13.89;100.00
60725;BME280;59881;36.722;-4.462;2022-12-15T09:30:00;99832.50;;;13.75;100.00
60725;BME280;59881;36.722;-4.462;2022-12-15T09:32:25;100011.09;;;13.81;100.00
60725;BME280;59881;36.722;-4.462;2022-12-15T09:34:51;100004.97;;;13.61;100.00
60725;BME280;59881;36.722;-4.462;2022-12-15T09:37:16;99833.75;;;13.61;100.00
60725;BME280;59881;36.722;-4.462;2022-12-15T09:39:42;99854.91;;;13.91;100.00
60725;BME280;59881;36.722;-4.462;2022-12-15T09:42:25;99862.09;;;13.98;100.00
60725;BME280;59881;36.722;-4.462;2022-12-15T09:45:11;99813.66;;;13.78;100.00
60725;BME280;59881;36.722;-4.462;2022-12-15T09:50:15;99841.94;;;14.53;100.00
60725;BME280;59881;36.722;-4.462;2022-12-15T09:52:48;99817.53;;;14.49;100.00
60725;BME280;59881;36.722;-4.462;2022-12-15T09:55:21;99862.66;;;15.13;100.00
60725;BME280;59881;36.722;-4.462;2022-12-15T09:57:55;99848.66;;;15.46;99.62
60725;BME280;59881;36.722;-4.462;2022-12-15T10:00:23;99839.22;;;16.30;96.52
60725;BME280;59881;36.722;-4.462;2022-12-15T10:03:12;99488.81;;;15.36;89.38
60725;BME280;59881;36.722;-4.462;2022-12-15T10:08:30;99516.22;;;19.36;64.28
60725;BME280;59881;36.722;-4.462;2022-12-15T10:10:58;99795.50;;;19.83;66.08
60725;BME280;59881;36.722;-4.462;2022-12-15T10:16:12;99835.56;;;17.97;72.38
60725;BME280;59881;36.722;-4.462;2022-12-15T10:18:58;99828.31;;;17.33;74.93
60725;BME280;59881;36.722;-4.462;2022-12-15T10:21:29;99844.84;;;16.78;76.19
60725;BME280;59881;36.722;-4.462;2022-12-15T10:24:00;99658.84;;;15.42;75.16
60725;BME280;59881;36.722;-4.462;2022-12-15T10:26:33;99265.28;;;12.41;77.35
60725;BME280;59881;36.722;-4.462;2022-12-15T10:29:15;99670.09;;;14.12;79.52
60725;BME280;59881;36.722;-4.462;2022-12-15T10:34:34;99790.19;;;14.76;81.85
60725;BME280;59881;36.722;-4.462;2022-12-15T10:37:00;99845.03;;;14.94;82.93
60725;BME280;59881;36.722;-4.462;2022-12-15T10:39:40;99847.53;;;14.77;83.56
60725;BME280;59881;36.722;-4.462;2022-12-15T10:44:40;99798.47;;;14.18;85.25
60725;BME280;59881;36.722;-4.462;2022-12-15T10:47:30;99838.69;;;14.31;86.30
60725;BME280;59881;36.722;-4.462;2022-12-15T10:50:24;99345.91;;;11.12;87.14
60725;BME280;59881;36.722;-4.462;2022-12-15T10:52:50;99799.28;;;13.91;89.03
60725;BME280;59881;36.722;-4.462;2022-12-15T10:57:58;99812.53;;;13.81;91.03
60725;BME280;59881;36.722;-4.462;2022-12-15T11:00:27;99728.09;;;13.50;91.58
60725;BME280;59881;36.722;-4.462;2022-12-15T11:02:53;99588.00;;;12.74;91.43
60725;BME280;59881;36.722;-4.462;2022-12-15T11:05:19;99811.75;;;14.36;91.43
60725;BME280;59881;36.722;-4.462;2022-12-15T11:12:40;99827.41;;;14.57;90.79
60725;BME280;59881;36.722;-4.462;2022-12-15T11:20:36;99372.00;;;12.48;88.34
60725;BME280;59881;36.722;-4.462;2022-12-15T11:25:41;99793.72;;;15.91;86.09
60725;BME280;59881;36.722;-4.462;2022-12-15T11:28:40;99801.00;;;16.31;84.47
60725;BME280;59881;36.722;-4.462;2022-12-15T11:31:24;99807.00;;;16.84;81.85
60725;BME280;59881;36.722;-4.462;2022-12-15T11:33:52;99048.72;;;12.93;79.08
60725;BME280;59881;36.722;-4.462;2022-12-15T11:39:23;99716.03;;;17.77;74.46
60725;BME280;59881;36.722;-4.462;2022-12-15T11:42:08;99755.47;;;17.98;73.44
60725;BME280;59881;36.722;-4.462;2022-12-15T11:44:56;99765.91;;;18.39;73.07
60725;BME280;59881;36.722;-4.462;2022-12-15T11:47:30;99750.06;;;18.69;71.54
60725;BME280;59881;36.722;-4.462;2022-12-15T11:50:13;99733.28;;;18.60;69.74
60725;BME280;59881;36.722;-4.462;2022-12-15T11:55:50;99308.97;;;16.03;69.15
60725;BME280;59881;36.722;-4.462;2022-12-15T12:04:19;99660.41;;;18.45;68.88
60725;BME280;59881;36.722;-4.462;2022-12-15T12:07:11;99623.59;;;18.17;68.53
60725;BME280;59881;36.722;-4.462;2022-12-15T12:12:56;99656.72;;;18.23;69.31
60725;BME280;59881;36.722;-4.462;2022-12-15T12:18:16;99399.31;;;16.51;69.10
60725;BME280;59881;36.722;-4.462;2022-12-15T12:20:55;99770.63;;;17.98;68.85
60725;BME280;59881;36.722;-4.462;2022-12-15T12:29:07;99669.34;;;17.58;69.73
60725;BME280;59881;36.722;-4.462;2022-12-15T12:39:46;99680.75;;;17.36;70.88
60725;BME280;59881;36.722;-4.462;2022-12-15T12:42:24;99771.25;;;17.36;71.04
60725;BME280;59881;36.722;-4.462;2022-12-15T12:44:53;99612.66;;;16.69;71.97
60725;BME280;59881;36.722;-4.462;2022-12-15T12:47:31;99696.09;;;17.09;72.27
60725;BME280;59881;36.722;-4.462;2022-12-15T12:50:31;99674.31;;;16.73;72.64
60725;BME280;59881;36.722;-4.462;2022-12-15T12:52:55;99478.91;;;15.62;73.05
60725;BME280;59881;36.722;-4.462;2022-12-15T12:58:40;99673.69;;;16.87;72.65
60725;BME280;59881;36.722;-4.462;2022-12-15T13:03:38;99587.09;;;16.27;72.16
60725;BME280;59881;36.722;-4.462;2022-12-15T13:09:38;99563.47;;;16.65;72.03
60725;BME280;59881;36.722;-4.462;2022-12-15T13:12:35;99688.88;;;17.43;71.67
60725;BME280;59881;36.722;-4.462;2022-12-15T13:17:50;99691.94;;;17.07;72.56
60725;BME280;59881;36.722;-4.462;2022-12-15T13:22:49;99665.16;;;17.16;71.55
60725;BME280;59881;36.722;-4.462;2022-12-15T13:27:55;99675.78;;;17.16;70.82
60725;BME280;59881;36.722;-4.462;2022-12-15T13:30:23;99565.50;;;16.39;70.97
60725;BME280;59881;36.722;-4.462;2022-12-15T13:33:13;99680.28;;;17.08;70.92
60725;BME280;59881;36.722;-4.462;2022-12-15T13:35:41;99632.41;;;16.75;70.91
60725;BME280;59881;36.722;-4.462;2022-12-15T13:38:16;99576.94;;;16.31;71.29
60725;BME280;59881;36.722;-4.462;2022-12-15T13:45:54;99691.63;;;16.85;73.23
60725;BME280;59881;36.722;-4.462;2022-12-15T13:54:22;99681.31;;;16.90;73.34
60725;BME280;59881;36.722;-4.462;2022-12-15T13:57:09;98829.81;;;11.51;73.51
60725;BME280;59881;36.722;-4.462;2022-12-15T13:59:45;99674.31;;;16.73;74.54
60725;BME280;59881;36.722;-4.462;2022-12-15T14:07:37;99680.50;;;16.90;75.30
60725;BME280;59881;36.722;-4.462;2022-12-15T14:10:06;99674.63;;;16.78;75.17
60725;BME280;59881;36.722;-4.462;2022-12-15T14:12:40;99677.63;;;16.67;75.58
60725;BME280;59881;36.722;-4.462;2022-12-15T14:15:14;99672.50;;;16.65;76.05
60725;BME280;59881;36.722;-4.462;2022-12-15T14:17:40;99675.66;;;16.61;76.27
60725;BME280;59881;36.722;-4.462;2022-12-15T14:20:16;99250.25;;;13.92;75.95
60725;BME280;59881;36.722;-4.462;2022-12-15T14:22:43;99687.94;;;16.62;76.30
60725;BME280;59881;36.722;-4.462;2022-12-15T14:25:23;99701.41;;;16.68;76.53
60725;BME280;59881;36.722;-4.462;2022-12-15T14:27:49;99687.28;;;16.68;76.01
60725;BME280;59881;36.722;-4.462;2022-12-15T14:30:29;99679.13;;;16.61;76.01
60725;BME280;59881;36.722;-4.462;2022-12-15T14:35:41;99681.44;;;16.48;75.71
60725;BME280;59881;36.722;-4.462;2022-12-15T14:38:13;99289.38;;;14.06;75.53
60725;BME280;59881;36.722;-4.462;2022-12-15T14:40:42;99280.88;;;13.94;75.68
60725;BME280;59881;36.722;-4.462;2022-12-15T14:43:18;99669.13;;;16.30;75.18
60725;BME280;59881;36.722;-4.462;2022-12-15T14:45:48;99671.28;;;16.19;75.23
60725;BME280;59881;36.722;-4.462;2022-12-15T14:48:31;98903.13;;;11.30;75.13
60725;BME280;59881;36.722;-4.462;2022-12-15T14:50:59;99675.56;;;16.03;75.59
60725;BME280;59881;36.722;-4.462;2022-12-15T14:53:35;99622.44;;;15.61;75.69
60725;BME280;59881;36.722;-4.462;2022-12-15T14:56:32;99690.75;;;15.85;76.03
60725;BME280;59881;36.722;-4.462;2022-12-15T14:59:01;99694.00;;;15.70;76.27
60725;BME280;59881;36.722;-4.462;2022-12-15T15:01:48;99694.97;;;15.61;76.51
60725;BME280;59881;36.722;-4.462;2022-12-15T15:04:28;99689.19;;;15.66;76.89
60725;BME280;59881;36.722;-4.462;2022-12-15T15:06:56;99624.41;;;15.50;76.80
60725;BME280;59881;36.722;-4.462;2022-12-15T15:09:28;99662.72;;;15.90;76.54
60725;BME280;59881;36.722;-4.462;2022-12-15T15:12:00;99694.72;;;16.23;75.82